Time;durP1;ratioP1;P1;durP2;ratioP2;P2;SDS_P1;SDS_P2;PMS_P1;PMS_P2;Temp;Humidity;BMP_temperature;BMP_pressure;BME280_temperature;BME280_humidity;BME280_pressure;Samples;Min_cycle;Max_cycle;Signal;HPM_P1;HPM_P2
2022/10/08 00:00:15;;;;;;;;;25.25;24.25;;;;;18.58;60.90;98884.22;4933451;28;102319;-60
2022/10/08 00:02:42;;;;;;;;;23.25;21.00;;;;;18.57;61.35;98883.38;4933488;28;104230;-59
2022/10/08 00:05:09;;;;;;;;;24.25;22.00;;;;;18.57;61.27;98885.28;4931564;28;102514;-59
2022/10/08 00:07:37;;;;;;;;;23.00;20.75;;;;;18.55;61.15;98877.31;4914277;28;102809;-60
2022/10/08 00:10:06;;;;;;;;;26.00;22.25;;;;;18.54;60.84;98872.94;4921820;28;102359;-60
2022/10/08 00:12:33;;;;;;;;;20.25;19.50;;;;;18.55;61.16;98880.03;4928504;28;103633;-60
2022/10/08 00:15:00;;;;;;;;;23.00;22.25;;;;;18.53;60.98;98868.53;4930977;28;103766;-60
2022/10/08 00:17:27;;;;;;;;;24.25;22.00;;;;;18.53;61.01;98871.25;4930211;28;102365;-59
2022/10/08 00:19:56;;;;;;;;;22.75;22.25;;;;;18.53;61.30;98864.94;4927650;28;102278;-59
2022/10/08 00:22:24;;;;;;;;;24.50;23.00;;;;;18.52;61.29;98868.72;4930960;28;104144;-60
2022/10/08 00:24:52;;;;;;;;;26.25;23.75;;;;;18.50;61.52;98863.50;4934445;28;102641;-60
2022/10/08 00:27:22;;;;;;;;;22.00;21.00;;;;;18.52;61.17;98863.25;4919247;28;103270;-59
2022/10/08 00:29:51;;;;;;;;;24.75;21.00;;;;;18.50;60.95;98859.94;4925758;28;102296;-60
2022/10/08 00:32:18;;;;;;;;;28.00;24.50;;;;;18.49;61.40;98853.63;4933734;28;104255;-59
2022/10/08 00:34:46;;;;;;;;;29.25;23.75;;;;;18.48;61.09;98862.06;4930896;28;103033;-59
2022/10/08 00:37:14;;;;;;;;;15.25;13.50;;;;;18.48;61.40;98857.44;4933313;28;102188;-59
2022/10/08 00:39:41;;;;;;;;;23.25;22.00;;;;;18.48;60.98;98853.88;4935362;28;102617;-59
2022/10/08 00:42:10;;;;;;;;;22.00;21.50;;;;;18.47;61.06;98847.56;4928776;28;104259;-60
2022/10/08 00:44:52;;;;;;;;;21.50;21.25;;;;;18.47;61.19;98838.50;4930260;28;102303;-59
2022/10/08 00:47:32;;;;;;;;;21.25;21.00;;;;;18.48;61.08;98838.28;4926437;28;102324;-60
2022/10/08 00:49:59;;;;;;;;;25.50;24.50;;;;;18.46;61.25;98840.41;4931114;28;103910;-60
2022/10/08 00:52:29;;;;;;;;;24.00;21.75;;;;;18.46;61.16;98829.44;4932115;28;108866;-60
2022/10/08 00:54:56;;;;;;;;;24.75;22.00;;;;;18.45;60.81;98836.03;4924896;28;102592;-60
2022/10/08 00:57:23;;;;;;;;;28.75;24.00;;;;;18.44;60.89;98826.16;4923465;28;102071;-59
2022/10/08 00:59:50;;;;;;;;;26.50;21.25;;;;;18.44;61.33;98825.31;4900993;28;102585;-59
2022/10/08 01:02:18;;;;;;;;;22.25;21.00;;;;;18.43;61.19;98823.66;4930970;28;104044;-59
2022/10/08 01:04:45;;;;;;;;;23.25;21.25;;;;;18.43;60.98;98823.66;4929961;28;102692;-59
2022/10/08 01:07:27;;;;;;;;;24.00;23.25;;;;;18.43;61.20;98819.00;4917858;28;102165;-60
2022/10/08 01:10:18;;;;;;;;;26.25;22.50;;;;;18.42;61.15;98817.34;4928472;28;102278;-59
2022/10/08 01:13:14;;;;;;;;;24.00;21.75;;;;;18.41;61.06;98821.19;4909492;28;108149;-59
2022/10/08 01:16:13;;;;;;;;;22.00;21.50;;;;;18.41;60.79;98815.69;4926800;28;102590;-59
2022/10/08 01:19:01;;;;;;;;;22.50;21.00;;;;;18.38;61.01;98818.91;4911396;28;102599;-59
2022/10/08 01:22:07;;;;;;;;;23.25;22.50;;;;;18.38;60.97;98809.84;4931597;28;102987;-59
2022/10/08 01:28:08;;;;;;;;;23.25;21.00;;;;;18.36;61.12;98804.66;4920768;28;102588;-60
2022/10/08 01:30:38;;;;;;;;;25.75;23.75;;;;;18.38;61.19;98804.38;4924316;28;102930;-60
2022/10/08 01:33:11;;;;;;;;;23.00;21.25;;;;;18.36;60.64;98804.66;4928642;28;102621;-59
2022/10/08 01:35:43;;;;;;;;;22.75;21.75;;;;;18.37;60.65;98802.75;4904974;28;104010;-59
2022/10/08 01:38:12;;;;;;;;;25.25;22.50;;;;;18.38;61.17;98809.84;4926858;28;103835;-60
2022/10/08 01:40:39;;;;;;;;;21.25;21.25;;;;;18.35;60.85;98800.25;4920461;28;103279;-59
2022/10/08 01:43:07;;;;;;;;;23.75;22.50;;;;;18.35;61.09;98800.25;4905218;28;102448;-59
2022/10/08 01:45:42;;;;;;;;;22.75;21.50;;;;;18.34;61.37;98804.06;4929685;28;104020;-59
2022/10/08 01:48:13;;;;;;;;;24.75;23.00;;;;;18.34;61.03;98795.84;4935168;28;103825;-59
2022/10/08 01:50:47;;;;;;;;;26.25;25.50;;;;;18.33;60.88;98796.91;4919219;28;103676;-59
2022/10/08 01:53:15;;;;;;;;;27.75;26.00;;;;;18.32;60.92;98794.44;4903121;28;102643;-59
2022/10/08 01:55:44;;;;;;;;;23.75;22.25;;;;;18.32;61.40;98799.91;4920949;28;104097;-59
2022/10/08 01:58:27;;;;;;;;;23.50;20.25;;;;;18.31;61.30;98793.59;4934106;28;102265;-60
2022/10/08 02:00:55;;;;;;;;;24.00;21.75;;;;;18.29;61.48;98793.00;4925326;28;102294;-60
2022/10/08 02:03:22;;;;;;;;;22.00;22.00;;;;;18.29;61.04;98796.56;4930447;28;102634;-60
2022/10/08 02:05:51;;;;;;;;;26.00;25.00;;;;;18.28;61.00;98797.66;4941859;28;104176;-60
2022/10/08 02:08:18;;;;;;;;;28.50;25.75;;;;;18.27;60.68;98793.28;4922633;28;102743;-59
2022/10/08 02:10:45;;;;;;;;;24.25;21.25;;;;;18.27;61.23;98786.97;4939933;28;102528;-59
2022/10/08 02:13:12;;;;;;;;;24.75;23.00;;;;;18.26;61.24;98788.88;4946813;28;102358;-59
2022/10/08 02:16:05;;;;;;;;;24.00;24.00;;;;;18.27;61.12;98795.19;4905157;28;104059;-59
2022/10/08 02:18:45;;;;;;;;;26.25;23.75;;;;;18.28;60.99;98794.09;4918986;28;102500;-59
2022/10/08 02:21:17;;;;;;;;;25.25;24.75;;;;;18.26;60.70;98791.59;4921050;28;102407;-60
2022/10/08 02:23:49;;;;;;;;;26.00;24.25;;;;;18.27;61.10;98798.75;4909548;28;102498;-59
2022/10/08 02:26:18;;;;;;;;;25.25;21.75;;;;;18.26;61.02;98797.06;4904288;28;111322;-60
2022/10/08 02:28:45;;;;;;;;;27.00;25.25;;;;;18.26;61.32;98796.25;4904839;28;103893;-60
2022/10/08 02:31:16;;;;;;;;;24.00;22.25;;;;;18.26;61.28;98791.59;4935440;28;102169;-59
2022/10/08 02:34:03;;;;;;;;;30.75;26.00;;;;;18.25;61.06;98792.66;4921043;28;102634;-60
2022/10/08 02:36:33;;;;;;;;;27.75;22.75;;;;;18.24;61.34;98781.97;4924700;28;108935;-59
2022/10/08 02:39:03;;;;;;;;;25.75;23.50;;;;;18.24;60.69;98787.44;4921121;28;102187;-60
2022/10/08 02:41:36;;;;;;;;;26.75;25.75;;;;;18.23;61.34;98785.78;4937333;28;103179;-59
2022/10/08 02:44:06;;;;;;;;;24.75;23.00;;;;;18.22;61.08;98792.34;4920665;28;102421;-64
2022/10/08 02:46:37;;;;;;;;;26.25;25.00;;;;;18.22;60.82;98789.59;4900874;28;104223;-64
2022/10/08 02:49:07;;;;;;;;;27.50;24.75;;;;;18.20;61.23;98781.63;4901587;28;102200;-64
2022/10/08 02:51:36;;;;;;;;;27.00;25.50;;;;;18.19;60.72;98784.63;4916044;28;102249;-64
2022/10/08 02:54:05;;;;;;;;;31.00;25.00;;;;;18.19;61.10;98787.38;4904929;28;102562;-65
2022/10/08 02:56:45;;;;;;;;;30.50;26.75;;;;;18.19;60.69;98790.09;4891060;28;104178;-64
2022/10/08 02:59:16;;;;;;;;;28.00;26.00;;;;;18.18;61.15;98777.50;4901622;28;102724;-65
2022/10/08 03:01:54;;;;;;;;;28.50;26.00;;;;;18.17;61.23;98782.13;4903276;28;103175;-65
2022/10/08 03:04:22;;;;;;;;;30.50;29.25;;;;;18.18;60.78;98786.53;4898626;28;104637;-65
2022/10/08 03:06:51;;;;;;;;;29.00;25.25;;;;;18.19;60.50;98790.09;4914187;28;104456;-65
2022/10/08 03:09:19;;;;;;;;;24.00;23.00;;;;;18.18;60.97;98788.44;4900371;28;102758;-65
2022/10/08 03:11:46;;;;;;;;;28.50;27.75;;;;;18.19;60.74;98795.56;4886445;28;102607;-65
2022/10/08 03:14:13;;;;;;;;;31.00;26.50;;;;;18.18;61.08;98788.44;4901382;28;102492;-65
2022/10/08 03:16:42;;;;;;;;;31.50;28.50;;;;;18.17;61.14;98789.50;4910223;28;104139;-65
2022/10/08 03:19:10;;;;;;;;;20.25;18.50;;;;;18.17;61.05;98786.78;4903575;28;102572;-65
2022/10/08 03:21:38;;;;;;;;;26.25;24.50;;;;;18.17;61.06;98789.50;4892792;28;102418;-64
2022/10/08 03:24:06;;;;;;;;;26.75;23.75;;;;;18.15;60.59;98792.47;4909804;28;103390;-64
2022/10/08 03:26:33;;;;;;;;;25.75;24.50;;;;;18.14;60.61;98790.84;4912128;28;104063;-64
2022/10/08 03:29:01;;;;;;;;;30.00;25.00;;;;;18.15;60.86;98786.16;4922696;28;102269;-64
2022/10/08 03:31:27;;;;;;;;;26.25;25.25;;;;;18.13;61.12;98780.13;4907532;28;102989;-64
2022/10/08 03:33:54;;;;;;;;;32.50;28.50;;;;;18.13;60.70;98785.59;4902897;28;102417;-65
2022/10/08 03:36:22;;;;;;;;;28.25;25.00;;;;;18.12;60.59;98792.16;4907190;28;104123;-64
2022/10/08 03:38:49;;;;;;;;;32.25;29.50;;;;;18.10;61.05;98786.91;4916172;28;102503;-64
2022/10/08 03:41:16;;;;;;;;;26.75;26.00;;;;;18.10;60.71;98792.38;4903862;28;103926;-64
2022/10/08 03:43:43;;;;;;;;;27.25;26.25;;;;;18.10;60.95;98788.84;4911429;28;102623;-64
2022/10/08 03:46:12;;;;;;;;;25.50;25.50;;;;;18.10;60.82;98786.09;4916970;28;104073;-64
2022/10/08 03:48:39;;;;;;;;;28.00;24.25;;;;;18.10;60.78;98781.44;4932043;28;102420;-64
2022/10/08 03:51:15;;;;;;;;;30.25;27.00;;;;;18.11;61.03;98782.25;4930099;28;102200;-64
2022/10/08 03:53:42;;;;;;;;;28.50;27.50;;;;;18.11;60.89;98774.06;4935449;28;102185;-65
2022/10/08 03:56:14;;;;;;;;;31.00;26.75;;;;;18.11;60.22;98776.78;4921417;28;104098;-64
2022/10/08 03:58:41;;;;;;;;;31.75;28.00;;;;;18.11;60.55;98779.53;4928968;28;111861;-64
2022/10/08 04:01:13;;;;;;;;;32.75;28.50;;;;;18.11;60.68;98782.25;4917162;28;102764;-64
2022/10/08 04:03:41;;;;;;;;;29.25;28.50;;;;;18.09;61.21;98776.22;4926331;28;103381;-64
2022/10/08 04:06:08;;;;;;;;;26.75;26.25;;;;;18.08;61.07;98774.56;4868369;28;104215;-64
2022/10/08 04:08:35;;;;;;;;;28.25;27.75;;;;;18.07;61.01;98767.41;4931742;28;103886;-64
2022/10/08 04:11:09;;;;;;;;;29.25;25.75;;;;;18.07;61.25;98775.63;4927695;28;102251;-64
2022/10/08 04:13:36;;;;;;;;;28.00;27.25;;;;;18.05;60.97;98773.16;4914508;28;102497;-64
2022/10/08 04:16:05;;;;;;;;;32.00;27.25;;;;;18.06;60.38;98776.69;4920156;28;104140;-64
2022/10/08 04:18:32;;;;;;;;;28.25;26.25;;;;;18.04;60.83;98771.47;4939351;28;104149;-64
2022/10/08 04:21:01;;;;;;;;;27.25;25.00;;;;;18.04;61.18;98765.19;4930320;28;102609;-64
2022/10/08 04:23:29;;;;;;;;;29.50;26.25;;;;;18.04;61.02;98765.19;4909600;28;102275;-64
2022/10/08 04:25:56;;;;;;;;;30.00;29.00;;;;;18.03;61.27;98758.03;4921727;28;103999;-64
2022/10/08 04:28:23;;;;;;;;;30.00;25.50;;;;;18.01;60.96;98758.28;4907240;28;102550;-65
2022/10/08 04:31:04;;;;;;;;;28.00;26.50;;;;;18.02;60.44;98761.84;4930198;28;102422;-64
2022/10/08 04:33:32;;;;;;;;;29.50;27.00;;;;;18.01;60.87;98761.00;4933241;28;102624;-64
2022/10/08 04:35:59;;;;;;;;;26.75;23.50;;;;;18.02;61.15;98750.91;4920645;28;108747;-65
2022/10/08 04:38:27;;;;;;;;;30.25;28.00;;;;;18.02;60.82;98756.38;4928466;28;102524;-64
2022/10/08 04:41:10;;;;;;;;;28.00;25.50;;;;;18.02;60.60;98759.94;4933219;28;102445;-65
2022/10/08 04:43:38;;;;;;;;;31.50;27.50;;;;;18.03;60.49;98768.97;4931871;28;102608;-64
2022/10/08 04:46:06;;;;;;;;;32.50;28.25;;;;;18.02;60.81;98770.06;4931138;28;104042;-64
2022/10/08 04:48:33;;;;;;;;;30.00;27.75;;;;;18.01;60.61;98765.69;4904659;28;102538;-64
2022/10/08 04:51:01;;;;;;;;;31.75;28.75;;;;;18.01;60.96;98754.72;4923009;28;103149;-64
2022/10/08 04:53:33;;;;;;;;;28.25;26.00;;;;;18.00;60.33;98759.38;4925897;28;102241;-64
2022/10/08 04:56:16;;;;;;;;;28.75;27.50;;;;;18.00;60.60;98755.81;4930657;28;104043;-64
2022/10/08 04:58:43;;;;;;;;;32.00;27.50;;;;;17.99;61.15;98759.59;4929146;28;102541;-64
2022/10/08 05:01:12;;;;;;;;;29.75;25.75;;;;;17.99;60.99;98756.88;4923767;28;102531;-64
2022/10/08 05:03:41;;;;;;;;;30.50;28.25;;;;;17.98;61.07;98758.78;4930071;28;102551;-64
2022/10/08 05:06:08;;;;;;;;;26.50;26.00;;;;;17.97;61.13;98756.25;4930284;28;104129;-64
2022/10/08 05:08:36;;;;;;;;;26.25;25.25;;;;;17.97;61.00;98757.09;4927521;28;102481;-64
2022/10/08 05:11:03;;;;;;;;;31.50;29.00;;;;;17.97;60.83;98772.69;4941418;28;102319;-64
2022/10/08 05:13:30;;;;;;;;;32.00;28.25;;;;;17.96;61.21;98763.66;4944369;28;102226;-65
2022/10/08 05:16:02;;;;;;;;;31.25;30.00;;;;;17.94;60.76;98765.81;4927516;28;106637;-64
2022/10/08 05:18:30;;;;;;;;;31.75;29.50;;;;;17.95;60.84;98767.47;4926694;28;102348;-64
2022/10/08 05:21:01;;;;;;;;;30.00;26.25;;;;;17.95;60.82;98755.69;4928005;28;104382;-64
2022/10/08 05:23:28;;;;;;;;;31.75;26.25;;;;;17.94;60.68;98762.25;4936994;28;102520;-64
2022/10/08 05:25:55;;;;;;;;;25.50;24.00;;;;;17.94;60.82;98760.34;4940056;28;104492;-65
2022/10/08 05:28:22;;;;;;;;;31.50;30.25;;;;;17.95;60.73;98758.44;4922362;28;104305;-64
2022/10/08 05:30:49;;;;;;;;;29.75;26.75;;;;;17.94;60.84;98749.41;4931749;28;102457;-64
2022/10/08 05:33:16;;;;;;;;;27.25;25.25;;;;;17.96;60.63;98763.66;4927882;28;103450;-64
2022/10/08 05:35:43;;;;;;;;;29.50;25.00;;;;;17.96;60.73;98768.31;4938072;28;104033;-64
2022/10/08 05:38:10;;;;;;;;;22.75;22.00;;;;;17.94;60.32;98762.25;4933185;28;102236;-64
2022/10/08 05:40:37;;;;;;;;;35.50;30.75;;;;;17.94;61.09;98771.28;4939769;28;104703;-64
2022/10/08 05:43:04;;;;;;;;;29.00;27.00;;;;;17.94;60.70;98776.75;4943999;28;102514;-67
2022/10/08 05:45:31;;;;;;;;;31.50;28.00;;;;;17.93;60.66;98771.50;4929003;28;104038;-65
2022/10/08 05:47:58;;;;;;;;;32.25;29.00;;;;;17.93;60.50;98769.63;4931026;28;102043;-65
2022/10/08 05:50:25;;;;;;;;;27.75;27.25;;;;;17.93;60.51;98776.97;4930687;28;102419;-65
2022/10/08 05:52:52;;;;;;;;;34.50;31.00;;;;;17.93;60.42;98782.47;4922491;28;103682;-65
2022/10/08 05:55:19;;;;;;;;;37.75;30.75;;;;;17.92;60.25;98783.56;4934768;28;104046;-65
2022/10/08 05:57:46;;;;;;;;;30.00;25.75;;;;;17.92;60.76;98778.09;4931787;28;103611;-65
2022/10/08 06:00:13;;;;;;;;;31.00;29.00;;;;;17.92;60.43;98783.56;4938003;28;102307;-65
2022/10/08 06:02:40;;;;;;;;;32.50;28.75;;;;;17.91;60.40;98788.19;4938444;28;102405;-65
2022/10/08 06:05:07;;;;;;;;;33.75;29.25;;;;;17.89;60.89;98778.56;4927915;28;104024;-65
2022/10/08 06:07:34;;;;;;;;;28.75;26.50;;;;;17.90;60.78;98785.69;4941024;28;102575;-65
2022/10/08 06:10:01;;;;;;;;;31.75;29.00;;;;;17.90;60.37;98791.16;4939563;28;103467;-65
2022/10/08 06:12:30;;;;;;;;;29.67;27.67;;;;;17.90;60.77;98789.25;4946489;28;102538;-65
2022/10/08 06:14:57;;;;;;;;;32.50;29.00;;;;;17.91;60.68;98790.09;4939751;28;109322;-65
2022/10/08 06:17:24;;;;;;;;;30.75;29.00;;;;;17.91;60.17;98795.56;4935421;28;102504;-65
2022/10/08 06:19:51;;;;;;;;;30.00;28.00;;;;;17.90;60.68;98789.25;4946577;28;102323;-65
2022/10/08 06:22:18;;;;;;;;;31.00;27.00;;;;;17.92;60.49;98794.50;4946043;28;102623;-65
2022/10/08 06:24:45;;;;;;;;;33.50;26.25;;;;;17.91;60.49;98792.84;4940067;28;104229;-65
2022/10/08 06:27:12;;;;;;;;;29.75;27.00;;;;;17.92;60.33;98802.72;4942606;28;106662;-65
2022/10/08 06:29:39;;;;;;;;;31.00;28.75;;;;;17.91;59.92;98799.13;4935636;28;102567;-65
2022/10/08 06:32:06;;;;;;;;;37.25;31.00;;;;;17.91;60.26;98799.13;4944895;28;102502;-65
2022/10/08 06:34:34;;;;;;;;;29.25;27.25;;;;;17.91;59.86;98798.31;4918612;28;104024;-64
2022/10/08 06:37:01;;;;;;;;;29.00;26.25;;;;;17.90;60.20;98786.53;4951140;28;102540;-65
2022/10/08 06:39:28;;;;;;;;;33.00;27.75;;;;;17.90;60.20;98792.00;4926829;28;103042;-64
2022/10/08 06:41:55;;;;;;;;;28.50;27.50;;;;;17.90;59.67;98788.44;4936931;28;102462;-64
2022/10/08 06:44:22;;;;;;;;;31.00;28.25;;;;;17.89;60.47;98798.53;4936584;28;104080;-64
2022/10/08 06:46:49;;;;;;;;;32.25;29.50;;;;;17.89;60.28;98789.50;4939860;28;102525;-63
2022/10/08 06:49:17;;;;;;;;;29.50;25.25;;;;;17.89;60.47;98786.75;4943706;28;103124;-64
2022/10/08 06:51:44;;;;;;;;;32.00;29.75;;;;;17.88;59.64;98783.19;4938490;28;102553;-63
2022/10/08 06:54:11;;;;;;;;;39.00;32.75;;;;;17.88;60.42;98793.31;4924153;28;104117;-63
2022/10/08 06:56:38;;;;;;;;;32.50;28.50;;;;;17.87;59.92;98792.50;4936410;28;102508;-64
2022/10/08 06:59:05;;;;;;;;;28.50;26.50;;;;;17.88;60.57;98796.88;4928964;28;102451;-64
2022/10/08 07:01:33;;;;;;;;;31.25;29.00;;;;;17.88;59.55;98791.41;4928031;28;102140;-63
2022/10/08 07:04:01;;;;;;;;;30.75;29.25;;;;;17.89;59.88;98790.34;4943486;28;109035;-64
2022/10/08 07:06:28;;;;;;;;;29.00;28.25;;;;;17.90;60.24;98791.16;4942202;28;102313;-63
2022/10/08 07:08:57;;;;;;;;;32.25;29.50;;;;;17.89;59.41;98793.06;4937871;28;103560;-64
2022/10/08 07:11:24;;;;;;;;;28.75;27.50;;;;;17.92;59.82;98794.50;4924832;28;102650;-64
2022/10/08 07:13:52;;;;;;;;;32.50;29.00;;;;;17.92;59.38;98794.50;4935900;28;104093;-64
2022/10/08 07:16:20;;;;;;;;;30.00;27.75;;;;;17.92;60.10;98789.84;4937383;28;102473;-64
2022/10/08 07:18:49;;;;;;;;;31.75;29.25;;;;;17.94;60.20;98795.06;4937764;28;105762;-64
2022/10/08 07:21:17;;;;;;;;;32.50;27.00;;;;;17.94;60.58;98786.88;4936635;28;102486;-64
2022/10/08 07:23:44;;;;;;;;;30.25;28.25;;;;;17.94;59.72;98793.16;4940092;28;104122;-67
2022/10/08 07:26:14;;;;;;;;;34.75;32.50;;;;;17.96;59.36;98791.03;4930049;28;102468;-63
2022/10/08 07:28:43;;;;;;;;;31.50;30.25;;;;;17.97;59.87;98789.94;4929476;28;103363;-63
2022/10/08 07:31:13;;;;;;;;;39.00;32.25;;;;;17.98;59.39;98785.28;4935662;28;103740;-62
2022/10/08 07:33:40;;;;;;;;;38.50;33.00;;;;;18.00;59.20;98785.91;4889974;28;104159;-61
2022/10/08 07:36:20;;;;;;;;;34.50;29.25;;;;;17.99;59.28;98781.50;4934377;28;103355;-62
2022/10/08 07:38:51;;;;;;;;;21.75;20.50;;;;;17.96;58.78;98780.09;4936668;28;102268;-63
2022/10/08 07:41:18;;;;;;;;;34.50;32.50;;;;;17.95;59.14;98777.59;4923401;28;103570;-63
2022/10/08 07:43:49;;;;;;;;;38.25;32.00;;;;;17.93;59.10;98774.25;4934526;28;104064;-63
2022/10/08 07:46:16;;;;;;;;;36.50;33.00;;;;;17.94;59.57;98775.91;4934362;28;102237;-63
2022/10/08 07:48:43;;;;;;;;;38.00;32.50;;;;;17.93;59.87;98774.25;4928827;28;103047;-63
2022/10/08 07:51:10;;;;;;;;;32.75;29.50;;;;;17.94;59.46;98771.28;4923308;28;102362;-65
2022/10/08 07:53:38;;;;;;;;;33.75;30.00;;;;;17.95;59.96;98781.16;4935594;28;104247;-62
2022/10/08 07:56:05;;;;;;;;;29.75;27.50;;;;;17.95;59.37;98777.59;4933313;28;103729;-63
2022/10/08 07:58:32;;;;;;;;;34.75;31.25;;;;;17.97;59.88;98775.41;4921618;28;102838;-63
2022/10/08 08:01:01;;;;;;;;;33.25;30.25;;;;;17.98;59.41;98772.44;4928402;28;102439;-62
2022/10/08 08:03:29;;;;;;;;;34.00;30.50;;;;;17.99;59.54;98767.81;4937233;28;104226;-62
2022/10/08 08:06:08;;;;;;;;;32.00;31.25;;;;;18.00;59.48;98761.28;4938495;28;102911;-63
2022/10/08 08:08:36;;;;;;;;;35.25;30.00;;;;;18.00;59.53;98758.53;4920146;28;102490;-62
2022/10/08 08:11:04;;;;;;;;;28.00;27.00;;;;;18.01;59.50;98765.69;4911664;28;104158;-62
2022/10/08 08:13:32;;;;;;;;;33.25;30.50;;;;;18.02;59.78;98768.16;4932753;28;110831;-63
2022/10/08 08:16:07;;;;;;;;;27.75;25.25;;;;;18.02;60.09;98767.31;4923897;28;102518;-63
2022/10/08 08:18:36;;;;;;;;;32.25;29.75;;;;;18.03;59.34;98766.25;4929981;28;102682;-62
2022/10/08 08:21:11;;;;;;;;;35.50;31.75;;;;;18.02;59.91;98765.41;4912058;28;104016;-63
2022/10/08 08:23:40;;;;;;;;;33.50;30.00;;;;;18.02;59.48;98770.88;4933374;28;108763;-63
2022/10/08 08:26:09;;;;;;;;;28.75;25.25;;;;;18.04;59.96;98773.38;4927812;28;104134;-63
2022/10/08 08:28:36;;;;;;;;;33.50;29.25;;;;;18.04;59.69;98770.66;4930262;28;102165;-63
2022/10/08 08:31:13;;;;;;;;;31.25;28.25;;;;;18.04;59.96;98765.19;4941657;28;102641;-62
2022/10/08 08:33:41;;;;;;;;;31.00;30.50;;;;;18.05;59.71;98773.16;4923880;28;104101;-63
2022/10/08 08:36:08;;;;;;;;;30.50;27.75;;;;;18.06;59.57;98768.47;4935859;28;102273;-63
2022/10/08 08:38:38;;;;;;;;;32.50;29.50;;;;;18.06;59.67;98773.94;4916036;28;102346;-63
2022/10/08 08:41:13;;;;;;;;;34.25;31.00;;;;;18.08;59.73;98766.34;4926455;28;103912;-62
2022/10/08 08:43:46;;;;;;;;;31.25;26.50;;;;;18.08;59.70;98766.34;4932499;28;104154;-63
2022/10/08 08:46:15;;;;;;;;;26.50;25.25;;;;;18.08;59.64;98767.19;4931003;28;103834;-63
2022/10/08 08:48:42;;;;;;;;;28.75;26.75;;;;;18.10;60.26;98764.22;4912140;28;102747;-63
2022/10/08 08:51:09;;;;;;;;;27.75;26.00;;;;;18.11;60.30;98763.94;4923292;28;102602;-63
2022/10/08 08:53:36;;;;;;;;;27.00;26.75;;;;;18.12;59.48;98762.88;4921806;28;104070;-62
2022/10/08 08:56:05;;;;;;;;;27.50;25.75;;;;;18.12;59.32;98765.59;4929523;28;103065;-62
2022/10/08 08:58:41;;;;;;;;;29.50;26.25;;;;;18.12;59.79;98762.88;4944044;28;102681;-62
2022/10/08 09:01:08;;;;;;;;;26.25;24.00;;;;;18.13;59.64;98767.28;4903123;28;103836;-62
2022/10/08 09:03:42;;;;;;;;;28.00;25.25;;;;;18.14;59.99;98771.69;4936449;28;104179;-62
2022/10/08 09:06:13;;;;;;;;;29.00;24.75;;;;;18.14;59.48;98766.22;4912414;28;102374;-63
2022/10/08 09:08:55;;;;;;;;;26.75;23.25;;;;;18.17;59.66;98764.88;4904732;28;105667;-62
2022/10/08 09:11:23;;;;;;;;;24.50;24.50;;;;;18.17;60.34;98759.41;4903549;28;102642;-63
2022/10/08 09:14:09;;;;;;;;;26.25;22.75;;;;;18.18;60.09;98756.44;4929744;28;104095;-63
2022/10/08 09:16:36;;;;;;;;;25.75;25.00;;;;;18.17;60.26;98754.75;4928064;28;102301;-63
2022/10/08 09:19:03;;;;;;;;;22.00;21.00;;;;;18.18;60.09;98750.94;4927926;28;102174;-63
2022/10/08 09:21:31;;;;;;;;;27.00;24.00;;;;;18.20;60.20;98758.91;4941491;28;102269;-63
2022/10/08 09:23:59;;;;;;;;;26.75;24.00;;;;;18.20;60.08;98747.94;4938479;28;104326;-64
2022/10/08 09:26:30;;;;;;;;;21.00;21.00;;;;;18.22;60.24;98740.34;4937954;28;103052;-63
2022/10/08 09:28:58;;;;;;;;;23.00;22.25;;;;;18.22;59.92;98746.66;4942210;28;102480;-65
2022/10/08 09:31:40;;;;;;;;;24.50;24.00;;;;;18.23;59.78;98742.00;4928511;28;102550;-65
2022/10/08 09:34:11;;;;;;;;;26.50;24.00;;;;;18.24;59.94;98749.09;4920069;28;108894;-64
2022/10/08 09:36:40;;;;;;;;;32.25;28.25;;;;;18.25;59.95;98748.03;4936691;28;102517;-66
2022/10/08 09:39:34;;;;;;;;;28.00;26.25;;;;;18.27;59.93;98743.16;4942187;28;103580;-64
2022/10/08 09:42:08;;;;;;;;;29.75;26.00;;;;;18.27;59.63;98743.16;4940902;28;102154;-65
2022/10/08 09:44:45;;;;;;;;;28.00;25.75;;;;;18.29;60.11;98749.22;4937864;28;108872;-64
2022/10/08 09:47:20;;;;;;;;;27.75;24.00;;;;;18.29;59.83;98744.56;4929926;28;102481;-65
2022/10/08 09:50:20;;;;;;;;;24.50;23.50;;;;;18.30;60.12;98739.91;4923668;28;102634;-66
2022/10/08 09:52:47;;;;;;;;;28.00;27.00;;;;;18.32;60.16;98750.63;4931089;28;104071;-68
2022/10/08 09:55:16;;;;;;;;;30.25;26.00;;;;;18.32;60.29;98746.00;4915617;28;104074;-68
2022/10/08 09:57:45;;;;;;;;;32.25;28.25;;;;;18.33;60.71;98749.56;4931368;28;103673;-65
2022/10/08 10:00:28;;;;;;;;;34.25;28.75;;;;;18.35;61.56;98744.66;4920483;28;102786;-65
2022/10/08 10:02:56;;;;;;;;;33.50;31.00;;;;;18.38;62.35;98746.88;4934450;28;104698;-65
2022/10/08 10:05:29;;;;;;;;;38.75;33.00;;;;;18.40;64.22;98745.59;4937366;28;104121;-67
2022/10/08 10:07:56;;;;;;;;;37.25;32.00;;;;;18.44;64.26;98737.69;4941766;28;102410;-67
2022/10/08 10:10:40;;;;;;;;;33.75;30.00;;;;;18.49;64.68;98746.84;4928423;28;102496;-67
2022/10/08 10:13:11;;;;;;;;;28.75;26.00;;;;;18.52;64.53;98746.31;4938692;28;102399;-64
2022/10/08 10:15:41;;;;;;;;;38.50;30.00;;;;;18.53;64.73;98734.34;4938192;28;103782;-67
2022/10/08 10:18:18;;;;;;;;;31.75;28.75;;;;;18.57;64.10;98738.22;4916852;28;102152;-67
2022/10/08 10:20:47;;;;;;;;;31.75;28.75;;;;;18.60;64.04;98729.50;4914125;28;102215;-67
2022/10/08 10:23:16;;;;;;;;;30.00;26.50;;;;;18.64;63.76;98736.13;4913435;28;102552;-68
2022/10/08 10:26:02;;;;;;;;;30.50;27.75;;;;;18.66;63.80;98733.16;4923961;28;103352;-66
2022/10/08 10:28:33;;;;;;;;;29.50;26.50;;;;;18.70;63.80;98726.09;4927885;28;103048;-62
2022/10/08 10:31:04;;;;;;;;;30.25;29.25;;;;;18.73;63.23;98724.78;4914502;28;102538;-62
2022/10/08 10:33:33;;;;;;;;;30.25;27.50;;;;;18.75;63.34;98722.59;4922490;28;102160;-68
2022/10/08 10:36:02;;;;;;;;;25.75;24.25;;;;;18.76;63.16;98725.09;4919697;28;104168;-67
2022/10/08 10:38:31;;;;;;;;;29.00;28.00;;;;;18.78;62.94;98719.38;4935505;28;102778;-67
2022/10/08 10:41:07;;;;;;;;;27.25;25.25;;;;;18.79;62.85;98718.28;4927144;28;102205;-68
2022/10/08 10:43:49;;;;;;;;;31.00;28.25;;;;;18.81;62.71;98716.97;4939347;28;102116;-68
2022/10/08 10:46:32;;;;;;;;;26.00;26.00;;;;;18.81;62.42;98713.41;4915999;28;108818;-68
2022/10/08 10:48:59;;;;;;;;;27.75;26.75;;;;;18.82;62.75;98718.63;4911444;28;102809;-68
2022/10/08 10:51:51;;;;;;;;;28.25;25.00;;;;;18.83;62.27;98713.97;4918016;28;102326;-68
2022/10/08 10:54:38;;;;;;;;;30.25;28.00;;;;;18.85;62.36;98720.88;4871219;28;102336;-68
2022/10/08 10:57:15;;;;;;;;;23.50;21.00;;;;;18.85;62.15;98709.06;4912717;28;109011;-68
2022/10/08 11:00:02;;;;;;;;;25.00;23.50;;;;;18.87;62.25;98709.63;4900419;28;102436;-68
2022/10/08 11:02:43;;;;;;;;;30.00;27.50;;;;;18.88;62.29;98703.91;4921127;28;102380;-68
2022/10/08 11:05:24;;;;;;;;;27.75;26.25;;;;;18.90;61.92;98706.41;4912875;28;103940;-67
2022/10/08 11:08:03;;;;;;;;;25.75;24.50;;;;;18.90;61.95;98703.66;4898842;28;104077;-68
2022/10/08 11:10:45;;;;;;;;;30.50;27.75;;;;;18.91;61.80;98697.13;4915200;28;102506;-68
2022/10/08 11:13:24;;;;;;;;;25.75;25.00;;;;;18.92;61.75;98696.00;4910016;28;103766;-68
2022/10/08 11:16:27;;;;;;;;;26.00;24.50;;;;;18.93;61.74;98692.19;4915358;28;102504;-65
2022/10/08 11:18:56;;;;;;;;;28.25;25.50;;;;;18.92;61.98;98685.88;4906234;28;108985;-65
2022/10/08 11:21:53;;;;;;;;;25.75;24.75;;;;;18.94;61.65;98685.63;4894576;28;102489;-65
2022/10/08 11:24:23;;;;;;;;;22.25;20.00;;;;;18.95;61.64;98684.56;4911833;28;102392;-65
2022/10/08 11:27:05;;;;;;;;;24.25;22.00;;;;;18.95;61.90;98673.59;4912307;28;103102;-66
2022/10/08 11:29:55;;;;;;;;;26.75;25.25;;;;;18.96;61.74;98680.72;4910518;28;108919;-66